createdAt,value
2023-07-18T00:01:29.116Z,3.03
2023-07-18T00:03:51.113Z,3.57
2023-07-18T00:06:13.101Z,3.00
2023-07-18T00:08:35.132Z,3.40
2023-07-18T00:10:56.956Z,3.20
2023-07-18T00:13:18.884Z,3.33
2023-07-18T00:15:40.726Z,3.37
2023-07-18T00:18:03.485Z,3.20
2023-07-18T00:20:26.988Z,3.63
2023-07-18T00:22:51.260Z,3.30
2023-07-18T00:25:14.636Z,3.65
2023-07-18T00:27:41.340Z,4.17
2023-07-18T00:30:04.192Z,4.00
2023-07-18T00:32:26.097Z,4.67
2023-07-18T00:34:49.376Z,4.90
2023-07-18T00:37:11.832Z,5.67
2023-07-18T00:39:33.638Z,5.40
2023-07-18T00:41:55.662Z,5.93
2023-07-18T00:44:17.509Z,5.00
2023-07-18T00:46:40.099Z,5.77
2023-07-18T00:49:02.059Z,5.30
2023-07-18T00:51:26.265Z,5.47
2023-07-18T00:53:48.103Z,5.10
2023-07-18T00:56:11.078Z,5.23
2023-07-18T00:58:33.037Z,4.70
2023-07-18T01:00:55.743Z,4.77
2023-07-18T01:03:18.581Z,5.23
2023-07-18T01:05:40.781Z,5.57
2023-07-18T01:08:04.477Z,5.63
2023-07-18T01:10:28.430Z,5.20
2023-07-18T01:12:54.080Z,5.60
2023-07-18T01:15:23.054Z,5.33
2023-07-18T01:17:46.627Z,5.20
2023-07-18T01:20:13.563Z,5.80
2023-07-18T01:22:36.550Z,5.20
2023-07-18T01:24:58.465Z,6.00
2023-07-18T01:27:20.244Z,5.63
2023-07-18T01:29:42.103Z,5.70
2023-07-18T01:32:04.303Z,5.33
2023-07-18T01:34:25.997Z,5.70
2023-07-18T01:36:49.046Z,4.70
2023-07-18T01:39:10.806Z,6.13
2023-07-18T01:41:32.752Z,5.70
2023-07-18T01:43:54.887Z,6.00
2023-07-18T01:46:16.731Z,5.87
2023-07-18T01:48:39.643Z,5.97
2023-07-18T01:51:02.725Z,5.72
2023-07-18T01:53:27.301Z,6.50
2023-07-18T01:55:50.901Z,5.73
2023-07-18T01:58:12.724Z,6.23
2023-07-18T02:00:36.450Z,6.40
2023-07-18T02:02:58.983Z,5.82
2023-07-18T02:05:26.479Z,5.67
2023-07-18T02:07:49.193Z,5.90
2023-07-18T02:10:12.184Z,6.17
2023-07-18T02:12:34.424Z,5.83
2023-07-18T02:14:56.685Z,5.67
2023-07-18T02:17:18.587Z,5.57
2023-07-18T02:19:41.251Z,6.07
2023-07-18T02:22:04.565Z,6.10
2023-07-18T02:24:27.624Z,5.55
2023-07-18T02:26:49.451Z,5.03
2023-07-18T02:29:11.399Z,5.50
2023-07-18T02:31:34.370Z,5.67
2023-07-18T02:33:56.102Z,6.27
2023-07-18T02:36:19.102Z,5.90
2023-07-18T02:38:40.775Z,5.50
2023-07-18T02:41:02.394Z,5.10
2023-07-18T02:43:25.443Z,6.03
2023-07-18T02:45:49.476Z,6.03
2023-07-18T02:48:12.179Z,6.20
2023-07-18T02:50:36.714Z,5.75
2023-07-18T02:52:59.920Z,5.83
2023-07-18T02:55:21.515Z,5.70
2023-07-18T02:57:43.337Z,5.50
2023-07-18T03:00:12.042Z,5.90
2023-07-18T03:02:34.386Z,5.80
2023-07-18T03:04:57.552Z,6.20
2023-07-18T03:07:19.454Z,5.57
2023-07-18T03:09:43.109Z,5.60
2023-07-18T03:12:07.316Z,5.43
2023-07-18T03:14:30.495Z,5.53
2023-07-18T03:16:52.221Z,6.57
2023-07-18T03:19:15.483Z,6.27
2023-07-18T03:21:37.534Z,6.57
2023-07-18T03:23:59.587Z,6.63
2023-07-18T03:26:21.404Z,6.53
2023-07-18T03:28:43.078Z,6.47
2023-07-18T03:31:04.707Z,6.50
2023-07-18T03:35:51.217Z,6.30
2023-07-18T03:38:14.937Z,7.03
2023-07-18T03:40:36.780Z,6.30
2023-07-18T03:42:58.525Z,7.20
2023-07-18T03:45:20.220Z,6.90
2023-07-18T03:47:43.483Z,6.60
2023-07-18T03:50:05.785Z,6.63
2023-07-18T03:52:27.423Z,6.20
2023-07-18T03:54:49.106Z,6.83
2023-07-18T03:57:10.790Z,6.80
2023-07-18T03:59:32.518Z,6.33
2023-07-18T04:01:54.376Z,6.70
2023-07-18T04:04:16.632Z,6.13
2023-07-18T04:06:38.351Z,6.30
2023-07-18T04:09:01.195Z,6.03
2023-07-18T04:11:23.320Z,6.47
2023-07-18T04:13:44.999Z,6.23
2023-07-18T04:16:06.990Z,6.53
2023-07-18T04:18:28.742Z,6.30
2023-07-18T04:20:50.920Z,6.57
2023-07-18T04:23:12.671Z,6.40
2023-07-18T04:25:36.192Z,6.20
2023-07-18T04:27:58.091Z,6.47
2023-07-18T04:30:19.884Z,6.03
2023-07-18T04:32:43.316Z,6.63
2023-07-18T04:35:07.264Z,6.30
2023-07-18T04:37:29.379Z,6.40
2023-07-18T04:39:51.095Z,6.23
2023-07-18T04:42:13.420Z,5.87
2023-07-18T04:44:35.111Z,6.50
2023-07-18T04:46:56.870Z,6.83
2023-07-18T04:49:19.326Z,6.37
2023-07-18T04:51:41.394Z,6.33
2023-07-18T04:54:04.166Z,6.77
2023-07-18T04:56:25.843Z,6.17
2023-07-18T04:58:47.497Z,6.40
2023-07-18T05:01:09.578Z,6.63
2023-07-18T05:03:40.959Z,6.63
2023-07-18T05:06:13.721Z,6.80
2023-07-18T05:08:35.511Z,6.30
2023-07-18T05:11:02.748Z,6.53
2023-07-18T05:13:24.433Z,6.70
2023-07-18T05:15:46.292Z,6.07
2023-07-18T05:18:08.108Z,5.93
2023-07-18T05:20:30.859Z,6.70
2023-07-18T05:22:52.763Z,5.97
2023-07-18T05:25:17.743Z,5.47
2023-07-18T05:27:41.088Z,5.83
2023-07-18T05:30:05.643Z,5.40
2023-07-18T05:32:27.790Z,5.15
2023-07-18T05:34:50.879Z,5.33
2023-07-18T05:37:12.657Z,4.57
2023-07-18T05:39:34.449Z,4.83
2023-07-18T05:41:56.181Z,4.23
2023-07-18T05:44:17.866Z,4.37
2023-07-18T05:46:41.284Z,4.03
2023-07-18T05:49:03.269Z,4.13
2023-07-18T05:51:25.014Z,3.70
2023-07-18T05:53:46.771Z,4.33
2023-07-18T05:56:08.973Z,3.90
2023-07-18T05:58:30.688Z,3.70
2023-07-18T06:00:52.397Z,4.20
2023-07-18T06:03:14.173Z,4.13
2023-07-18T06:05:35.966Z,4.30
2023-07-18T06:07:57.777Z,3.90
2023-07-18T06:10:19.583Z,3.20
2023-07-18T06:12:41.265Z,3.37
2023-07-18T06:15:03.302Z,3.30
2023-07-18T06:17:24.945Z,3.57
2023-07-18T06:19:49.569Z,2.93
2023-07-18T06:22:11.743Z,3.57
2023-07-18T06:24:33.384Z,3.50
2023-07-18T06:26:55.198Z,3.73
2023-07-18T06:29:21.509Z,3.50
2023-07-18T06:31:43.356Z,3.87
2023-07-18T06:34:05.113Z,3.63
2023-07-18T06:36:27.113Z,3.77
2023-07-18T06:38:48.841Z,3.70
2023-07-18T06:41:10.826Z,3.50
2023-07-18T06:43:33.583Z,2.97
2023-07-18T06:45:55.221Z,3.17
2023-07-18T06:48:18.235Z,3.07
2023-07-18T06:50:48.253Z,3.27
2023-07-18T06:53:09.937Z,3.00
2023-07-18T06:55:32.604Z,3.00
2023-07-18T06:57:54.277Z,2.80
2023-07-18T07:00:16.900Z,3.07
2023-07-18T07:02:38.696Z,3.25
2023-07-18T07:05:01.237Z,2.78
2023-07-18T07:07:23.310Z,2.85
2023-07-18T07:09:45.444Z,2.55
2023-07-18T07:12:08.668Z,2.45
2023-07-18T07:14:30.510Z,2.80
2023-07-18T07:16:52.297Z,2.60
2023-07-18T07:19:14.580Z,2.55
2023-07-18T07:21:36.500Z,2.50
2023-07-18T07:23:59.640Z,2.40
2023-07-18T07:26:21.370Z,2.90
2023-07-18T07:28:43.092Z,2.22
2023-07-18T07:31:06.705Z,2.42
2023-07-18T07:33:28.705Z,2.08
2023-07-18T07:35:50.709Z,2.13
2023-07-18T07:38:12.663Z,2.10
2023-07-18T07:40:34.559Z,2.00
2023-07-18T07:42:56.552Z,1.73
2023-07-18T07:45:18.342Z,1.90
2023-07-18T07:47:40.706Z,1.88
2023-07-18T07:50:03.389Z,1.77
2023-07-18T07:52:25.345Z,1.80
2023-07-18T07:54:49.717Z,1.85
2023-07-18T07:57:11.778Z,2.30
2023-07-18T07:59:33.542Z,1.88
2023-07-18T08:01:55.657Z,1.45
2023-07-18T08:04:17.712Z,1.55
2023-07-18T08:06:40.609Z,2.40
2023-07-18T08:09:03.746Z,2.45
2023-07-18T08:11:25.479Z,2.72
2023-07-18T08:13:47.311Z,2.38
2023-07-18T08:16:09.092Z,2.70
2023-07-18T08:18:30.951Z,2.25
2023-07-18T08:20:52.672Z,2.20
2023-07-18T08:23:14.628Z,2.05
2023-07-18T08:25:36.476Z,2.10
2023-07-18T08:27:58.309Z,1.52
2023-07-18T08:30:21.078Z,1.75
2023-07-18T08:32:43.458Z,1.75
2023-07-18T08:35:06.393Z,1.60
2023-07-18T08:37:28.095Z,1.35
2023-07-18T08:39:49.833Z,1.67
2023-07-18T08:42:15.288Z,1.20
2023-07-18T08:44:37.923Z,1.25
2023-07-18T08:47:01.952Z,1.20
2023-07-18T08:49:28.899Z,1.20
2023-07-18T08:51:50.799Z,1.17
2023-07-18T08:54:16.399Z,1.23
2023-07-18T08:56:44.011Z,1.00
2023-07-18T08:59:05.734Z,1.10
2023-07-18T09:01:27.731Z,1.20
2023-07-18T09:03:49.636Z,0.88
2023-07-18T09:06:21.402Z,1.33
2023-07-18T09:08:44.880Z,0.70
2023-07-18T09:11:06.826Z,1.08
2023-07-18T09:13:28.736Z,0.80
2023-07-18T09:15:50.510Z,0.75
2023-07-18T09:18:14.161Z,0.95
2023-07-18T09:20:36.194Z,0.60
2023-07-18T09:23:06.338Z,0.70
2023-07-18T09:25:28.620Z,0.70
2023-07-18T09:27:58.682Z,0.60
2023-07-18T09:30:38.978Z,0.77
2023-07-18T09:33:04.964Z,0.55
2023-07-18T09:35:30.208Z,0.60
2023-07-18T09:37:51.992Z,0.93
2023-07-18T09:40:19.187Z,0.70
2023-07-18T09:42:47.420Z,0.50
2023-07-18T09:45:12.456Z,0.50
2023-07-18T09:47:35.607Z,0.57
2023-07-18T09:49:57.320Z,0.50
2023-07-18T09:52:27.646Z,0.57
2023-07-18T09:54:53.793Z,0.50
2023-07-18T09:57:17.642Z,0.52
2023-07-18T09:59:40.858Z,0.47
2023-07-18T10:02:07.143Z,0.40
2023-07-18T10:04:29.268Z,0.57
2023-07-18T10:06:56.744Z,0.50
2023-07-18T10:09:20.135Z,0.43
2023-07-18T10:12:00.404Z,0.32
2023-07-18T10:14:22.095Z,0.40
2023-07-18T10:16:43.968Z,0.50
2023-07-18T10:19:20.367Z,0.50
2023-07-18T10:21:47.502Z,0.50
2023-07-18T10:24:27.366Z,0.50
2023-07-18T10:26:53.450Z,0.40
2023-07-18T10:29:16.028Z,0.30
2023-07-18T10:31:40.543Z,0.40
2023-07-18T10:34:20.580Z,0.30
2023-07-18T10:36:56.194Z,0.50
2023-07-18T10:39:18.161Z,0.50
2023-07-18T10:41:46.806Z,0.40
2023-07-18T10:44:16.160Z,0.55
2023-07-18T10:46:39.737Z,0.40
2023-07-18T10:49:01.618Z,0.33
2023-07-18T10:51:23.426Z,0.40
2023-07-18T10:53:54.038Z,0.43
2023-07-18T10:56:25.041Z,0.47
2023-07-18T10:58:47.730Z,0.43
2023-07-18T11:01:11.001Z,0.70
2023-07-18T11:03:37.138Z,0.60
2023-07-18T11:05:58.933Z,0.50
2023-07-18T11:08:29.877Z,0.57
2023-07-18T11:11:00.477Z,0.55
2023-07-18T11:13:38.406Z,0.50
2023-07-18T11:16:08.165Z,0.40
2023-07-18T11:18:42.960Z,0.57
2023-07-18T11:23:32.942Z,0.77
2023-07-18T11:25:54.692Z,0.40
2023-07-18T11:28:16.741Z,0.50
2023-07-18T11:30:38.538Z,0.60
2023-07-18T11:33:00.233Z,0.50
2023-07-18T11:35:24.276Z,0.63
2023-07-18T11:37:49.265Z,0.68
2023-07-18T11:40:12.391Z,0.50
2023-07-18T11:42:47.966Z,0.60
2023-07-18T11:45:11.124Z,0.80
2023-07-18T11:47:33.377Z,0.65
2023-07-18T11:49:55.162Z,0.60
2023-07-18T11:52:19.612Z,0.60
2023-07-18T11:54:42.475Z,0.90
2023-07-18T11:57:06.454Z,0.50
2023-07-18T11:59:28.295Z,0.60
2023-07-18T12:01:50.277Z,0.50
2023-07-18T12:04:16.132Z,0.50
2023-07-18T12:06:38.752Z,0.70
2023-07-18T12:09:00.488Z,0.60
2023-07-18T12:11:23.407Z,0.60
2023-07-18T12:13:45.245Z,0.70
2023-07-18T12:16:07.538Z,0.90
2023-07-18T12:18:29.269Z,0.80
2023-07-18T12:20:51.554Z,0.70
2023-07-18T12:23:13.320Z,0.50
2023-07-18T12:25:35.070Z,0.55
2023-07-18T12:27:56.693Z,0.45
2023-07-18T12:30:18.466Z,0.70
2023-07-18T12:32:40.160Z,0.80
2023-07-18T12:35:02.000Z,0.70
2023-07-18T12:37:24.378Z,0.70
2023-07-18T12:39:46.216Z,0.68
2023-07-18T12:42:08.096Z,0.85
2023-07-18T12:44:42.533Z,0.63
2023-07-18T12:47:04.954Z,0.68
2023-07-18T12:51:51.422Z,0.63
2023-07-18T12:54:13.175Z,0.60
2023-07-18T12:56:36.531Z,0.55
2023-07-18T12:58:58.615Z,0.70
2023-07-18T13:01:20.541Z,0.60
2023-07-18T13:03:42.437Z,0.60
2023-07-18T13:06:07.634Z,0.77
2023-07-18T13:08:29.832Z,0.70
2023-07-18T13:10:51.859Z,0.73
2023-07-18T13:13:13.538Z,0.75
2023-07-18T13:15:35.288Z,0.70
2023-07-18T13:17:57.093Z,0.50
2023-07-18T13:20:19.760Z,0.68
2023-07-18T13:22:41.525Z,0.68
2023-07-18T13:25:05.155Z,0.70
2023-07-18T13:27:26.916Z,0.80
2023-07-18T13:29:48.702Z,0.70
2023-07-18T13:32:10.559Z,0.90
2023-07-18T13:34:32.398Z,0.60
2023-07-18T13:36:54.053Z,0.50
2023-07-18T13:39:16.880Z,0.50
2023-07-18T13:41:38.725Z,0.65
2023-07-18T13:44:00.426Z,0.60
2023-07-18T13:46:22.511Z,0.55
2023-07-18T13:48:46.234Z,0.63
2023-07-18T13:51:08.357Z,0.50
2023-07-18T13:53:30.669Z,0.40
2023-07-18T13:55:52.632Z,0.60
2023-07-18T13:58:15.952Z,0.80
2023-07-18T14:00:38.234Z,0.70
2023-07-18T14:03:00.189Z,0.85
2023-07-18T14:05:22.355Z,0.80
2023-07-18T14:07:44.231Z,0.63
2023-07-18T14:10:07.761Z,0.68
2023-07-18T14:12:29.928Z,0.68
2023-07-18T14:14:51.800Z,0.57
2023-07-18T14:17:13.771Z,0.77
2023-07-18T14:19:36.139Z,0.60
2023-07-18T14:21:58.303Z,0.57
2023-07-18T14:24:20.288Z,0.57
2023-07-18T14:26:42.299Z,0.70
2023-07-18T14:29:05.056Z,0.80
2023-07-18T14:31:27.063Z,0.82
2023-07-18T14:34:04.736Z,0.68
2023-07-18T14:36:27.934Z,0.70
2023-07-18T14:38:50.078Z,0.60
2023-07-18T14:41:13.322Z,0.50
2023-07-18T14:43:35.327Z,0.90
2023-07-18T14:45:57.385Z,0.68
2023-07-18T14:48:19.493Z,0.60
2023-07-18T14:50:41.354Z,0.80
2023-07-18T14:53:03.464Z,0.90
2023-07-18T14:55:25.482Z,0.60
2023-07-18T14:57:47.636Z,0.60
2023-07-18T15:00:11.107Z,0.73
2023-07-18T15:02:33.073Z,0.60
2023-07-18T15:04:57.744Z,0.70
2023-07-18T15:07:19.739Z,0.73
2023-07-18T15:09:41.791Z,0.73
2023-07-18T15:12:04.202Z,0.50
2023-07-18T15:14:26.297Z,0.70
2023-07-18T15:16:48.191Z,0.80
2023-07-18T15:19:10.158Z,0.80
2023-07-18T15:21:32.062Z,0.80
2023-07-18T15:23:54.091Z,0.77
2023-07-18T15:26:16.592Z,0.80
2023-07-18T15:28:38.520Z,0.60
2023-07-18T15:31:00.492Z,0.80
2023-07-18T15:33:27.113Z,0.47
2023-07-18T15:35:49.419Z,0.68
2023-07-18T15:38:11.524Z,0.90
2023-07-18T15:40:33.820Z,0.75
2023-07-18T15:42:56.589Z,0.70
2023-07-18T15:45:18.501Z,0.70
2023-07-18T15:47:40.357Z,0.77
2023-07-18T15:50:02.498Z,0.70
2023-07-18T15:52:24.985Z,0.70
2023-07-18T15:54:46.935Z,0.60
2023-07-18T15:57:11.149Z,0.85
2023-07-18T15:59:34.692Z,0.70
2023-07-18T16:01:59.065Z,0.70
2023-07-18T16:04:21.914Z,0.60
2023-07-18T16:06:44.346Z,0.60
2023-07-18T16:09:06.695Z,0.50
2023-07-18T16:11:28.670Z,0.80
2023-07-18T16:13:50.872Z,0.80
2023-07-18T16:16:18.262Z,0.90
2023-07-18T16:19:04.739Z,0.70
2023-07-18T16:21:27.480Z,0.77
2023-07-18T16:23:50.384Z,0.63
2023-07-18T16:26:12.331Z,1.13
2023-07-18T16:28:34.286Z,0.77
2023-07-18T16:30:56.292Z,0.70
2023-07-18T16:33:18.317Z,0.90
2023-07-18T16:35:40.517Z,0.70
2023-07-18T16:38:03.813Z,0.73
2023-07-18T16:40:25.751Z,1.00
2023-07-18T16:42:47.573Z,0.70
2023-07-18T16:45:10.524Z,0.93
2023-07-18T16:47:32.406Z,0.90
2023-07-18T16:49:54.390Z,0.70
2023-07-18T16:52:16.429Z,0.70
2023-07-18T16:54:38.359Z,0.90
2023-07-18T16:57:00.176Z,1.00
2023-07-18T16:59:22.414Z,0.70
2023-07-18T17:01:44.304Z,0.90
2023-07-18T17:04:06.823Z,0.75
2023-07-18T17:06:31.078Z,0.80
2023-07-18T17:11:15.729Z,0.80
2023-07-18T17:13:38.711Z,0.95
2023-07-18T17:16:01.381Z,0.70
2023-07-18T17:18:24.286Z,0.70
2023-07-18T17:20:47.673Z,1.10
2023-07-18T17:23:11.647Z,1.00
2023-07-18T17:25:34.726Z,1.00
2023-07-18T17:27:57.365Z,0.88
2023-07-18T17:30:20.118Z,1.08
2023-07-18T17:32:42.740Z,0.90
2023-07-18T17:35:05.853Z,1.10
2023-07-18T17:37:28.660Z,0.80
2023-07-18T17:39:51.414Z,0.73
2023-07-18T17:42:15.904Z,1.35
2023-07-18T17:44:38.515Z,0.80
2023-07-18T17:47:02.315Z,0.90
2023-07-18T17:49:25.138Z,0.70
2023-07-18T17:51:48.107Z,0.93
2023-07-18T17:54:10.811Z,0.93
2023-07-18T17:56:34.077Z,0.80
2023-07-18T17:58:59.538Z,0.80
2023-07-18T18:01:21.928Z,0.80
2023-07-18T18:03:44.191Z,0.85
2023-07-18T18:06:06.192Z,0.95
2023-07-18T18:08:28.328Z,0.80
2023-07-18T18:10:50.450Z,0.93
2023-07-18T18:13:13.840Z,1.02
2023-07-18T18:15:35.862Z,0.70
2023-07-18T18:17:57.853Z,0.77
2023-07-18T18:20:21.098Z,0.70
2023-07-18T18:22:43.004Z,0.80
2023-07-18T18:25:05.425Z,0.90
2023-07-18T18:27:27.381Z,0.70
2023-07-18T18:29:49.677Z,0.90
2023-07-18T18:32:12.767Z,0.70
2023-07-18T18:34:34.782Z,0.70
2023-07-18T18:36:56.801Z,0.88
2023-07-18T18:39:19.234Z,1.30
2023-07-18T18:41:41.179Z,1.15
2023-07-18T18:44:03.010Z,1.35
2023-07-18T18:46:24.929Z,1.90
2023-07-18T18:48:46.784Z,3.00
2023-07-18T18:51:09.594Z,4.90
2023-07-18T18:53:31.730Z,4.43
2023-07-18T18:55:54.302Z,4.05
2023-07-18T18:58:16.137Z,2.92
2023-07-18T19:00:39.583Z,2.10
2023-07-18T19:03:01.449Z,2.00
2023-07-18T19:05:23.334Z,2.03
2023-07-18T19:07:45.333Z,1.60
2023-07-18T19:10:07.782Z,1.70
2023-07-18T19:12:29.626Z,1.83
2023-07-18T19:14:51.668Z,1.90
2023-07-18T19:17:13.540Z,1.52
2023-07-18T19:19:41.587Z,1.40
2023-07-18T19:22:03.470Z,1.27
2023-07-18T19:24:25.383Z,1.15
2023-07-18T19:26:47.430Z,1.60
2023-07-18T19:29:09.784Z,1.52
2023-07-18T19:31:31.642Z,1.45
2023-07-18T19:33:53.543Z,1.60
2023-07-18T19:36:15.885Z,1.40
2023-07-18T19:38:40.177Z,1.33
2023-07-18T19:41:02.717Z,1.30
2023-07-18T19:43:24.730Z,1.60
2023-07-18T19:45:46.961Z,1.52
2023-07-18T19:48:08.900Z,1.30
2023-07-18T19:50:30.709Z,1.38
2023-07-18T19:52:52.561Z,1.50
2023-07-18T19:55:14.501Z,1.70
2023-07-18T19:57:36.507Z,1.60
2023-07-18T19:59:58.427Z,1.67
2023-07-18T20:02:20.419Z,1.60
2023-07-18T20:04:42.250Z,1.27
2023-07-18T20:07:04.548Z,1.38
2023-07-18T20:09:26.478Z,1.55
2023-07-18T20:11:48.285Z,1.40
2023-07-18T20:14:10.111Z,1.30
2023-07-18T20:16:32.772Z,1.02
2023-07-18T20:19:01.671Z,1.60
2023-07-18T20:21:24.176Z,1.65
2023-07-18T20:23:46.027Z,1.70
2023-07-18T20:26:10.207Z,1.45
2023-07-18T20:28:32.842Z,2.10
2023-07-18T20:30:56.002Z,1.95
2023-07-18T20:33:18.218Z,1.90
2023-07-18T20:35:40.041Z,2.40
2023-07-18T20:38:01.886Z,2.40
2023-07-18T20:40:24.061Z,2.53
2023-07-18T20:42:45.848Z,2.22
2023-07-18T20:45:08.464Z,2.28
2023-07-18T20:47:31.884Z,2.67
2023-07-18T20:49:53.652Z,2.92
2023-07-18T20:52:16.645Z,3.05
2023-07-18T20:54:39.375Z,2.60
2023-07-18T20:57:01.106Z,2.67
2023-07-18T20:59:22.921Z,2.70
2023-07-18T21:01:44.687Z,2.60
2023-07-18T21:04:06.589Z,2.55
2023-07-18T21:06:29.316Z,2.70
2023-07-18T21:08:51.587Z,2.70
2023-07-18T21:11:15.474Z,2.85
2023-07-18T21:13:37.260Z,3.25
2023-07-18T21:15:59.224Z,2.97
2023-07-18T21:18:21.146Z,3.00
2023-07-18T21:20:42.940Z,2.92
2023-07-18T21:23:05.109Z,2.80
2023-07-18T21:25:29.554Z,2.80
2023-07-18T21:27:51.384Z,3.08
2023-07-18T21:30:13.257Z,3.33
2023-07-18T21:32:36.217Z,2.97
2023-07-18T21:34:58.069Z,2.92
2023-07-18T21:37:19.876Z,3.22
2023-07-18T21:39:41.726Z,3.08
2023-07-18T21:42:04.589Z,2.85
2023-07-18T21:44:26.326Z,3.35
2023-07-18T21:46:48.176Z,3.05
2023-07-18T21:49:10.094Z,2.90
2023-07-18T21:51:32.143Z,3.35
2023-07-18T21:53:54.022Z,2.83
2023-07-18T21:56:15.857Z,2.90
2023-07-18T21:58:38.086Z,3.17
2023-07-18T22:00:59.949Z,2.83
2023-07-18T22:03:22.068Z,3.10
2023-07-18T22:05:43.962Z,3.42
2023-07-18T22:08:05.894Z,3.90
2023-07-18T22:10:27.838Z,3.30
2023-07-18T22:12:49.715Z,3.50
2023-07-18T22:15:11.594Z,3.47
2023-07-18T22:17:33.404Z,3.30
2023-07-18T22:19:55.314Z,3.30
2023-07-18T22:22:17.185Z,3.60
2023-07-18T22:24:39.141Z,3.75
2023-07-18T22:27:00.934Z,3.28
2023-07-18T22:29:22.759Z,3.53
2023-07-18T22:31:44.586Z,3.17
2023-07-18T22:34:06.799Z,3.17
2023-07-18T22:36:28.640Z,3.58
2023-07-18T22:38:50.449Z,3.63
2023-07-18T22:41:12.296Z,3.80
2023-07-18T22:43:34.163Z,3.38
2023-07-18T22:45:55.951Z,3.78
2023-07-18T22:48:22.499Z,3.28
2023-07-18T22:50:44.288Z,3.47
2023-07-18T22:53:06.977Z,3.72
2023-07-18T22:55:30.426Z,3.72
2023-07-18T22:57:52.221Z,3.40
2023-07-18T23:00:14.461Z,3.65
2023-07-18T23:02:37.102Z,3.28
2023-07-18T23:04:58.962Z,3.53
2023-07-18T23:07:20.787Z,3.38
2023-07-18T23:09:42.699Z,3.30
2023-07-18T23:12:05.130Z,3.60
2023-07-18T23:14:27.606Z,3.08
2023-07-18T23:16:51.097Z,3.58
2023-07-18T23:19:13.206Z,3.63
2023-07-18T23:21:34.986Z,3.30
2023-07-18T23:23:56.912Z,3.40
2023-07-18T23:26:18.696Z,3.50
2023-07-18T23:28:41.297Z,3.40
2023-07-18T23:31:05.921Z,3.30
2023-07-18T23:33:27.709Z,3.20
2023-07-18T23:35:49.364Z,3.47
2023-07-18T23:38:11.609Z,3.27
2023-07-18T23:40:33.344Z,3.47
2023-07-18T23:42:54.989Z,3.57
2023-07-18T23:45:17.020Z,3.43
2023-07-18T23:47:38.804Z,3.30
2023-07-18T23:50:00.692Z,3.40
2023-07-18T23:52:22.314Z,3.43
2023-07-18T23:54:44.052Z,3.50
2023-07-18T23:57:06.271Z,3.50
2023-07-18T23:59:27.969Z,3.30
